sensor_id;sensor_type;location;lat;lon;timestamp;temperature;humidity
12682;DHT22;6405;59.208;18.216;2023-02-25T00:01:26;-2.20;99.90
12682;DHT22;6405;59.208;18.216;2023-02-25T00:03:53;-2.20;99.90
12682;DHT22;6405;59.208;18.216;2023-02-25T00:06:20;-2.20;99.90
12682;DHT22;6405;59.208;18.216;2023-02-25T00:08:47;-2.20;99.90
12682;DHT22;6405;59.208;18.216;2023-02-25T00:11:14;-2.30;99.90
12682;DHT22;6405;59.208;18.216;2023-02-25T00:13:41;-2.20;99.90
12682;DHT22;6405;59.208;18.216;2023-02-25T00:16:07;-2.30;99.90
12682;DHT22;6405;59.208;18.216;2023-02-25T00:18:33;-2.30;99.90
12682;DHT22;6405;59.208;18.216;2023-02-25T00:21:03;-2.30;99.90
12682;DHT22;6405;59.208;18.216;2023-02-25T00:23:29;-2.30;99.90
12682;DHT22;6405;59.208;18.216;2023-02-25T00:26:03;-2.30;99.90
12682;DHT22;6405;59.208;18.216;2023-02-25T00:28:33;-2.30;99.90
12682;DHT22;6405;59.208;18.216;2023-02-25T00:30:58;-2.30;99.90
12682;DHT22;6405;59.208;18.216;2023-02-25T00:33:24;-2.30;99.90
12682;DHT22;6405;59.208;18.216;2023-02-25T00:35:50;-2.30;99.90
12682;DHT22;6405;59.208;18.216;2023-02-25T00:38:16;-2.30;99.90
12682;DHT22;6405;59.208;18.216;2023-02-25T00:40:42;-2.30;99.90
12682;DHT22;6405;59.208;18.216;2023-02-25T00:43:08;-2.30;99.90
12682;DHT22;6405;59.208;18.216;2023-02-25T00:45:33;-2.30;99.90
12682;DHT22;6405;59.208;18.216;2023-02-25T00:47:59;-2.30;99.90
12682;DHT22;6405;59.208;18.216;2023-02-25T00:50:25;-2.40;99.90
12682;DHT22;6405;59.208;18.216;2023-02-25T00:52:51;-2.40;99.90
12682;DHT22;6405;59.208;18.216;2023-02-25T00:55:16;-2.40;99.90
12682;DHT22;6405;59.208;18.216;2023-02-25T00:57:42;-2.40;99.90
12682;DHT22;6405;59.208;18.216;2023-02-25T01:00:09;-2.40;99.90
12682;DHT22;6405;59.208;18.216;2023-02-25T01:02:44;-2.40;99.90
12682;DHT22;6405;59.208;18.216;2023-02-25T01:05:13;-2.40;99.90
12682;DHT22;6405;59.208;18.216;2023-02-25T01:07:40;-2.40;99.90
12682;DHT22;6405;59.208;18.216;2023-02-25T01:10:06;-2.40;99.90
12682;DHT22;6405;59.208;18.216;2023-02-25T01:12:32;-2.40;99.90
12682;DHT22;6405;59.208;18.216;2023-02-25T01:14:58;-2.40;99.90
12682;DHT22;6405;59.208;18.216;2023-02-25T01:17:23;-2.40;99.90
12682;DHT22;6405;59.208;18.216;2023-02-25T01:19:49;-2.40;99.90
12682;DHT22;6405;59.208;18.216;2023-02-25T01:22:14;-2.40;99.90
12682;DHT22;6405;59.208;18.216;2023-02-25T01:24:40;-2.40;99.90
12682;DHT22;6405;59.208;18.216;2023-02-25T01:27:06;-2.50;99.90
12682;DHT22;6405;59.208;18.216;2023-02-25T01:29:38;-2.50;99.90
12682;DHT22;6405;59.208;18.216;2023-02-25T01:32:07;-2.50;99.90
12682;DHT22;6405;59.208;18.216;2023-02-25T01:34:34;-2.40;99.90
12682;DHT22;6405;59.208;18.216;2023-02-25T01:36:59;-2.40;99.90
12682;DHT22;6405;59.208;18.216;2023-02-25T01:39:26;-2.40;99.90
12682;DHT22;6405;59.208;18.216;2023-02-25T01:41:52;-2.40;99.90
12682;DHT22;6405;59.208;18.216;2023-02-25T01:44:21;-2.40;99.90
12682;DHT22;6405;59.208;18.216;2023-02-25T01:46:49;-2.40;99.90
12682;DHT22;6405;59.208;18.216;2023-02-25T01:49:20;-2.50;99.90
12682;DHT22;6405;59.208;18.216;2023-02-25T01:51:51;-2.40;99.90
12682;DHT22;6405;59.208;18.216;2023-02-25T01:54:19;-2.40;99.90
12682;DHT22;6405;59.208;18.216;2023-02-25T01:56:48;-2.40;99.90
12682;DHT22;6405;59.208;18.216;2023-02-25T01:59:16;-2.40;99.90
12682;DHT22;6405;59.208;18.216;2023-02-25T02:01:42;-2.40;99.90
12682;DHT22;6405;59.208;18.216;2023-02-25T02:04:11;-2.40;99.90
12682;DHT22;6405;59.208;18.216;2023-02-25T02:06:39;-2.40;99.90
12682;DHT22;6405;59.208;18.216;2023-02-25T02:09:08;-2.40;99.90
12682;DHT22;6405;59.208;18.216;2023-02-25T02:11:34;-2.30;99.90
12682;DHT22;6405;59.208;18.216;2023-02-25T02:14:02;-2.30;99.90
12682;DHT22;6405;59.208;18.216;2023-02-25T02:41:05;-2.10;99.90
12682;DHT22;6405;59.208;18.216;2023-02-25T02:43:39;-2.00;99.90
12682;DHT22;6405;59.208;18.216;2023-02-25T02:46:17;-2.00;99.90
12682;DHT22;6405;59.208;18.216;2023-02-25T02:49:01;-2.00;99.90
12682;DHT22;6405;59.208;18.216;2023-02-25T02:51:50;-2.00;99.90
12682;DHT22;6405;59.208;18.216;2023-02-25T02:54:19;-2.00;99.90
12682;DHT22;6405;59.208;18.216;2023-02-25T02:56:47;-1.90;99.90
12682;DHT22;6405;59.208;18.216;2023-02-25T02:59:21;-1.90;99.90
12682;DHT22;6405;59.208;18.216;2023-02-25T03:01:54;-1.90;99.90
12682;DHT22;6405;59.208;18.216;2023-02-25T03:04:26;-1.90;99.90
12682;DHT22;6405;59.208;18.216;2023-02-25T03:07:00;-1.90;99.90
12682;DHT22;6405;59.208;18.216;2023-02-25T03:09:36;-1.90;99.90
12682;DHT22;6405;59.208;18.216;2023-02-25T03:12:02;-1.90;99.90
12682;DHT22;6405;59.208;18.216;2023-02-25T03:14:29;-1.80;99.90
12682;DHT22;6405;59.208;18.216;2023-02-25T03:19:26;-1.80;99.90
12682;DHT22;6405;59.208;18.216;2023-02-25T03:22:01;-1.80;99.90
12682;DHT22;6405;59.208;18.216;2023-02-25T03:24:31;-1.80;99.90
12682;DHT22;6405;59.208;18.216;2023-02-25T03:26:59;-1.80;99.90
12682;DHT22;6405;59.208;18.216;2023-02-25T03:29:27;-1.80;99.90
12682;DHT22;6405;59.208;18.216;2023-02-25T03:31:57;-1.80;99.90
12682;DHT22;6405;59.208;18.216;2023-02-25T03:34:34;-1.80;99.90
12682;DHT22;6405;59.208;18.216;2023-02-25T03:37:04;-1.80;99.90
12682;DHT22;6405;59.208;18.216;2023-02-25T03:39:35;-1.80;99.90
12682;DHT22;6405;59.208;18.216;2023-02-25T03:42:05;-1.80;99.90
12682;DHT22;6405;59.208;18.216;2023-02-25T03:44:40;-1.80;99.90
12682;DHT22;6405;59.208;18.216;2023-02-25T03:47:09;-1.80;99.90
12682;DHT22;6405;59.208;18.216;2023-02-25T03:49:42;-1.80;99.90
12682;DHT22;6405;59.208;18.216;2023-02-25T03:52:13;-1.80;99.90
12682;DHT22;6405;59.208;18.216;2023-02-25T03:54:40;-1.70;99.90
12682;DHT22;6405;59.208;18.216;2023-02-25T03:57:06;-1.70;99.90
12682;DHT22;6405;59.208;18.216;2023-02-25T03:59:31;-1.70;99.90
12682;DHT22;6405;59.208;18.216;2023-02-25T04:01:58;-1.70;99.90
12682;DHT22;6405;59.208;18.216;2023-02-25T04:04:25;-1.70;99.90
12682;DHT22;6405;59.208;18.216;2023-02-25T04:06:50;-1.70;99.90
12682;DHT22;6405;59.208;18.216;2023-02-25T04:09:17;-1.70;99.90
12682;DHT22;6405;59.208;18.216;2023-02-25T04:11:43;-1.70;99.90
12682;DHT22;6405;59.208;18.216;2023-02-25T04:14:08;-1.70;99.90
12682;DHT22;6405;59.208;18.216;2023-02-25T04:16:34;-1.70;99.90
12682;DHT22;6405;59.208;18.216;2023-02-25T04:19:00;-1.60;99.90
12682;DHT22;6405;59.208;18.216;2023-02-25T04:21:31;-1.60;99.90
12682;DHT22;6405;59.208;18.216;2023-02-25T04:23:57;-1.60;99.90
12682;DHT22;6405;59.208;18.216;2023-02-25T04:26:24;-1.60;99.90
12682;DHT22;6405;59.208;18.216;2023-02-25T04:28:50;-1.60;99.90
12682;DHT22;6405;59.208;18.216;2023-02-25T04:31:15;-1.50;99.90
12682;DHT22;6405;59.208;18.216;2023-02-25T04:33:41;-1.40;99.90
12682;DHT22;6405;59.208;18.216;2023-02-25T04:38:49;-1.40;99.90
12682;DHT22;6405;59.208;18.216;2023-02-25T04:41:14;-1.40;99.90
12682;DHT22;6405;59.208;18.216;2023-02-25T04:43:40;-1.30;99.90
12682;DHT22;6405;59.208;18.216;2023-02-25T04:46:06;-1.30;99.90
12682;DHT22;6405;59.208;18.216;2023-02-25T04:48:31;-1.30;99.90
12682;DHT22;6405;59.208;18.216;2023-02-25T04:51:00;-1.30;99.90
12682;DHT22;6405;59.208;18.216;2023-02-25T04:53:26;-1.20;99.90
12682;DHT22;6405;59.208;18.216;2023-02-25T04:55:52;-1.20;99.90
12682;DHT22;6405;59.208;18.216;2023-02-25T04:58:18;-1.20;99.90
12682;DHT22;6405;59.208;18.216;2023-02-25T05:00:44;-1.20;99.90
12682;DHT22;6405;59.208;18.216;2023-02-25T05:03:13;-1.20;99.90
12682;DHT22;6405;59.208;18.216;2023-02-25T05:05:39;-1.20;99.90
12682;DHT22;6405;59.208;18.216;2023-02-25T05:08:05;-1.20;99.90
12682;DHT22;6405;59.208;18.216;2023-02-25T05:10:31;-1.20;99.90
12682;DHT22;6405;59.208;18.216;2023-02-25T05:12:57;-1.20;99.90
12682;DHT22;6405;59.208;18.216;2023-02-25T05:15:22;-1.20;99.90
12682;DHT22;6405;59.208;18.216;2023-02-25T05:17:48;-1.20;99.90
12682;DHT22;6405;59.208;18.216;2023-02-25T05:20:14;-1.20;99.90
12682;DHT22;6405;59.208;18.216;2023-02-25T05:22:40;-1.20;99.90
12682;DHT22;6405;59.208;18.216;2023-02-25T05:25:07;-1.20;99.90
12682;DHT22;6405;59.208;18.216;2023-02-25T05:27:33;-1.20;99.90
12682;DHT22;6405;59.208;18.216;2023-02-25T05:29:59;-1.20;99.90
12682;DHT22;6405;59.208;18.216;2023-02-25T05:32:26;-1.20;99.90
12682;DHT22;6405;59.208;18.216;2023-02-25T05:34:51;-1.20;99.90
12682;DHT22;6405;59.208;18.216;2023-02-25T05:37:17;-1.20;99.90
12682;DHT22;6405;59.208;18.216;2023-02-25T05:39:42;-1.20;99.90
12682;DHT22;6405;59.208;18.216;2023-02-25T05:42:08;-1.20;99.90
12682;DHT22;6405;59.208;18.216;2023-02-25T05:44:34;-1.30;99.90
12682;DHT22;6405;59.208;18.216;2023-02-25T05:46:59;-1.30;99.90
12682;DHT22;6405;59.208;18.216;2023-02-25T05:49:25;-1.30;99.90
12682;DHT22;6405;59.208;18.216;2023-02-25T05:51:50;-1.30;99.90
12682;DHT22;6405;59.208;18.216;2023-02-25T05:54:16;-1.30;99.90
12682;DHT22;6405;59.208;18.216;2023-02-25T05:56:42;-1.20;99.90
12682;DHT22;6405;59.208;18.216;2023-02-25T05:59:10;-1.20;99.90
12682;DHT22;6405;59.208;18.216;2023-02-25T06:01:36;-1.20;99.90
12682;DHT22;6405;59.208;18.216;2023-02-25T06:04:01;-1.20;99.90
12682;DHT22;6405;59.208;18.216;2023-02-25T06:06:28;-1.20;99.90
12682;DHT22;6405;59.208;18.216;2023-02-25T06:08:56;-1.20;99.90
12682;DHT22;6405;59.208;18.216;2023-02-25T06:11:24;-1.20;99.90
12682;DHT22;6405;59.208;18.216;2023-02-25T06:13:52;-1.10;99.90
12682;DHT22;6405;59.208;18.216;2023-02-25T06:16:18;-1.10;99.90
12682;DHT22;6405;59.208;18.216;2023-02-25T06:18:45;-1.10;99.90
12682;DHT22;6405;59.208;18.216;2023-02-25T06:21:12;-1.10;99.90
12682;DHT22;6405;59.208;18.216;2023-02-25T06:23:41;-1.10;99.90
12682;DHT22;6405;59.208;18.216;2023-02-25T06:26:08;-1.10;99.90
12682;DHT22;6405;59.208;18.216;2023-02-25T06:28:35;-1.10;99.90
12682;DHT22;6405;59.208;18.216;2023-02-25T06:31:01;-1.10;99.90
12682;DHT22;6405;59.208;18.216;2023-02-25T06:33:30;-1.10;99.90
12682;DHT22;6405;59.208;18.216;2023-02-25T06:35:56;-1.10;99.90
12682;DHT22;6405;59.208;18.216;2023-02-25T06:38:23;-1.00;99.90
12682;DHT22;6405;59.208;18.216;2023-02-25T06:40:49;-1.00;99.90
12682;DHT22;6405;59.208;18.216;2023-02-25T06:43:16;-1.00;99.90
12682;DHT22;6405;59.208;18.216;2023-02-25T06:45:42;-1.00;99.90
12682;DHT22;6405;59.208;18.216;2023-02-25T06:48:07;-1.00;99.90
12682;DHT22;6405;59.208;18.216;2023-02-25T06:50:33;-1.00;99.90
12682;DHT22;6405;59.208;18.216;2023-02-25T06:52:59;-1.00;99.90
12682;DHT22;6405;59.208;18.216;2023-02-25T06:55:25;-1.00;99.90
12682;DHT22;6405;59.208;18.216;2023-02-25T06:57:50;-1.00;99.90
12682;DHT22;6405;59.208;18.216;2023-02-25T07:00:19;-0.90;99.90
12682;DHT22;6405;59.208;18.216;2023-02-25T07:02:45;-1.00;99.90
12682;DHT22;6405;59.208;18.216;2023-02-25T07:05:10;-0.90;99.90
12682;DHT22;6405;59.208;18.216;2023-02-25T07:07:36;-0.90;99.90
12682;DHT22;6405;59.208;18.216;2023-02-25T07:10:02;-0.80;99.90
12682;DHT22;6405;59.208;18.216;2023-02-25T07:12:28;-0.80;99.90
12682;DHT22;6405;59.208;18.216;2023-02-25T07:14:56;-0.80;99.90
12682;DHT22;6405;59.208;18.216;2023-02-25T07:17:22;-0.60;99.90
12682;DHT22;6405;59.208;18.216;2023-02-25T07:19:48;-0.70;99.90
12682;DHT22;6405;59.208;18.216;2023-02-25T07:22:15;-0.70;99.90
12682;DHT22;6405;59.208;18.216;2023-02-25T07:24:41;-0.60;99.90
12682;DHT22;6405;59.208;18.216;2023-02-25T07:27:07;-0.60;99.90
12682;DHT22;6405;59.208;18.216;2023-02-25T07:29:33;-0.60;99.90
12682;DHT22;6405;59.208;18.216;2023-02-25T07:31:58;-0.70;99.90
12682;DHT22;6405;59.208;18.216;2023-02-25T07:34:25;-0.70;99.90
12682;DHT22;6405;59.208;18.216;2023-02-25T07:36:51;-0.60;99.90
12682;DHT22;6405;59.208;18.216;2023-02-25T07:39:16;-0.60;99.90
12682;DHT22;6405;59.208;18.216;2023-02-25T07:41:42;-0.40;99.90
12682;DHT22;6405;59.208;18.216;2023-02-25T07:44:08;-0.40;99.90
12682;DHT22;6405;59.208;18.216;2023-02-25T07:46:34;-0.30;99.90
12682;DHT22;6405;59.208;18.216;2023-02-25T07:49:00;-0.30;99.90
12682;DHT22;6405;59.208;18.216;2023-02-25T07:51:26;-0.20;99.90
12682;DHT22;6405;59.208;18.216;2023-02-25T07:53:53;-0.10;99.90
12682;DHT22;6405;59.208;18.216;2023-02-25T07:56:21;0.00;99.90
12682;DHT22;6405;59.208;18.216;2023-02-25T07:58:47;0.10;99.90
12682;DHT22;6405;59.208;18.216;2023-02-25T08:01:24;0.10;99.90
12682;DHT22;6405;59.208;18.216;2023-02-25T08:03:52;0.20;99.90
12682;DHT22;6405;59.208;18.216;2023-02-25T08:06:18;0.00;99.90
12682;DHT22;6405;59.208;18.216;2023-02-25T08:08:46;0.10;99.90
12682;DHT22;6405;59.208;18.216;2023-02-25T08:11:13;0.10;99.90
12682;DHT22;6405;59.208;18.216;2023-02-25T08:13:39;0.30;99.90
12682;DHT22;6405;59.208;18.216;2023-02-25T08:16:11;0.20;99.90
12682;DHT22;6405;59.208;18.216;2023-02-25T08:18:37;0.30;99.90
12682;DHT22;6405;59.208;18.216;2023-02-25T08:21:04;0.40;99.90
12682;DHT22;6405;59.208;18.216;2023-02-25T08:23:30;0.30;99.90
12682;DHT22;6405;59.208;18.216;2023-02-25T08:25:56;0.30;99.90
12682;DHT22;6405;59.208;18.216;2023-02-25T08:28:24;0.30;99.90
12682;DHT22;6405;59.208;18.216;2023-02-25T08:30:52;0.40;99.90
12682;DHT22;6405;59.208;18.216;2023-02-25T08:33:19;0.50;99.90
12682;DHT22;6405;59.208;18.216;2023-02-25T08:35:45;0.60;99.90
12682;DHT22;6405;59.208;18.216;2023-02-25T08:38:11;0.80;99.90
12682;DHT22;6405;59.208;18.216;2023-02-25T08:40:38;0.80;99.90
12682;DHT22;6405;59.208;18.216;2023-02-25T08:43:05;0.70;99.90
12682;DHT22;6405;59.208;18.216;2023-02-25T08:45:30;0.80;99.90
12682;DHT22;6405;59.208;18.216;2023-02-25T08:47:56;0.90;99.90
12682;DHT22;6405;59.208;18.216;2023-02-25T08:50:21;0.90;99.90
12682;DHT22;6405;59.208;18.216;2023-02-25T08:52:49;0.90;99.90
12682;DHT22;6405;59.208;18.216;2023-02-25T08:55:15;1.00;99.90
12682;DHT22;6405;59.208;18.216;2023-02-25T08:57:41;1.20;99.90
12682;DHT22;6405;59.208;18.216;2023-02-25T09:00:08;1.30;99.90
12682;DHT22;6405;59.208;18.216;2023-02-25T09:02:35;1.40;99.90
12682;DHT22;6405;59.208;18.216;2023-02-25T09:05:01;1.20;99.90
12682;DHT22;6405;59.208;18.216;2023-02-25T09:07:26;1.00;99.90
12682;DHT22;6405;59.208;18.216;2023-02-25T09:09:52;0.90;99.90
12682;DHT22;6405;59.208;18.216;2023-02-25T09:12:17;0.80;99.90
12682;DHT22;6405;59.208;18.216;2023-02-25T09:14:43;0.80;99.90
12682;DHT22;6405;59.208;18.216;2023-02-25T09:17:09;0.90;99.90
12682;DHT22;6405;59.208;18.216;2023-02-25T09:19:35;1.10;99.90
12682;DHT22;6405;59.208;18.216;2023-02-25T09:22:07;1.10;99.90
12682;DHT22;6405;59.208;18.216;2023-02-25T09:24:34;1.20;99.90
12682;DHT22;6405;59.208;18.216;2023-02-25T09:27:02;1.20;99.90
12682;DHT22;6405;59.208;18.216;2023-02-25T09:29:37;1.20;99.90
12682;DHT22;6405;59.208;18.216;2023-02-25T09:32:03;1.00;99.90
12682;DHT22;6405;59.208;18.216;2023-02-25T09:34:29;1.00;99.90
12682;DHT22;6405;59.208;18.216;2023-02-25T09:36:58;0.80;99.90
12682;DHT22;6405;59.208;18.216;2023-02-25T09:39:24;0.80;99.90
12682;DHT22;6405;59.208;18.216;2023-02-25T09:42:00;1.10;99.90
12682;DHT22;6405;59.208;18.216;2023-02-25T09:44:39;1.20;99.90
12682;DHT22;6405;59.208;18.216;2023-02-25T09:52:49;0.90;99.90
12682;DHT22;6405;59.208;18.216;2023-02-25T09:55:35;0.70;99.90
12682;DHT22;6405;59.208;18.216;2023-02-25T10:00:40;0.40;99.90
12682;DHT22;6405;59.208;18.216;2023-02-25T10:05:51;0.60;99.90
12682;DHT22;6405;59.208;18.216;2023-02-25T10:08:41;0.60;99.90
12682;DHT22;6405;59.208;18.216;2023-02-25T10:11:19;0.70;99.90
12682;DHT22;6405;59.208;18.216;2023-02-25T10:14:12;0.80;99.90
12682;DHT22;6405;59.208;18.216;2023-02-25T10:17:04;0.80;99.90
12682;DHT22;6405;59.208;18.216;2023-02-25T10:24:58;0.80;99.90
12682;DHT22;6405;59.208;18.216;2023-02-25T10:27:32;0.70;99.90
12682;DHT22;6405;59.208;18.216;2023-02-25T10:30:15;0.80;99.90
12682;DHT22;6405;59.208;18.216;2023-02-25T10:32:44;0.70;99.90
12682;DHT22;6405;59.208;18.216;2023-02-25T10:35:23;0.60;99.90
12682;DHT22;6405;59.208;18.216;2023-02-25T10:37:49;0.60;99.90
12682;DHT22;6405;59.208;18.216;2023-02-25T10:40:18;0.60;99.90
12682;DHT22;6405;59.208;18.216;2023-02-25T10:42:47;0.60;99.90
12682;DHT22;6405;59.208;18.216;2023-02-25T10:45:20;0.60;99.90
12682;DHT22;6405;59.208;18.216;2023-02-25T10:47:50;0.70;99.90
12682;DHT22;6405;59.208;18.216;2023-02-25T10:53:04;1.10;99.90
12682;DHT22;6405;59.208;18.216;2023-02-25T10:55:44;1.20;99.90
12682;DHT22;6405;59.208;18.216;2023-02-25T10:58:32;1.30;99.90
12682;DHT22;6405;59.208;18.216;2023-02-25T11:01:09;1.20;99.90
12682;DHT22;6405;59.208;18.216;2023-02-25T11:03:56;1.30;99.90
12682;DHT22;6405;59.208;18.216;2023-02-25T11:08:50;1.20;99.90
12682;DHT22;6405;59.208;18.216;2023-02-25T11:11:22;1.10;99.90
12682;DHT22;6405;59.208;18.216;2023-02-25T11:14:16;1.10;99.90
12682;DHT22;6405;59.208;18.216;2023-02-25T11:16:44;1.00;99.90
12682;DHT22;6405;59.208;18.216;2023-02-25T11:19:27;1.00;99.90
12682;DHT22;6405;59.208;18.216;2023-02-25T11:21:54;1.00;99.90
12682;DHT22;6405;59.208;18.216;2023-02-25T11:24:28;0.90;99.90
12682;DHT22;6405;59.208;18.216;2023-02-25T11:26:56;0.70;99.90
12682;DHT22;6405;59.208;18.216;2023-02-25T11:29:35;0.70;99.90
12682;DHT22;6405;59.208;18.216;2023-02-25T11:32:14;0.70;99.90
12682;DHT22;6405;59.208;18.216;2023-02-25T11:34:54;0.90;99.90
12682;DHT22;6405;59.208;18.216;2023-02-25T11:37:32;0.90;99.90
12682;DHT22;6405;59.208;18.216;2023-02-25T11:40:00;1.00;99.90
12682;DHT22;6405;59.208;18.216;2023-02-25T11:42:27;1.00;99.90
12682;DHT22;6405;59.208;18.216;2023-02-25T11:45:02;1.20;99.90
12682;DHT22;6405;59.208;18.216;2023-02-25T11:47:31;1.10;99.90
12682;DHT22;6405;59.208;18.216;2023-02-25T11:51:17;1.00;99.90
12682;DHT22;6405;59.208;18.216;2023-02-25T11:53:38;0.90;99.90
12682;DHT22;6405;59.208;18.216;2023-02-25T12:01:54;0.90;99.90
12682;DHT22;6405;59.208;18.216;2023-02-25T12:41:15;0.80;99.90
12682;DHT22;6405;59.208;18.216;2023-02-25T12:43:52;0.80;99.90
12682;DHT22;6405;59.208;18.216;2023-02-25T12:49:39;0.70;99.90
12682;DHT22;6405;59.208;18.216;2023-02-25T12:57:44;0.70;99.90
12682;DHT22;6405;59.208;18.216;2023-02-25T13:00:51;0.60;99.90
12682;DHT22;6405;59.208;18.216;2023-02-25T13:09:35;0.50;99.90
12682;DHT22;6405;59.208;18.216;2023-02-25T13:12:25;0.40;99.90
12682;DHT22;6405;59.208;18.216;2023-02-25T13:15:15;0.50;99.90
12682;DHT22;6405;59.208;18.216;2023-02-25T13:18:04;0.70;99.90
12682;DHT22;6405;59.208;18.216;2023-02-25T13:23:45;0.80;99.90
12682;DHT22;6405;59.208;18.216;2023-02-25T13:29:39;0.80;99.90
12682;DHT22;6405;59.208;18.216;2023-02-25T13:35:20;0.70;99.90
12682;DHT22;6405;59.208;18.216;2023-02-25T13:40:57;0.70;99.90
12682;DHT22;6405;59.208;18.216;2023-02-25T13:49:08;0.50;99.90
12682;DHT22;6405;59.208;18.216;2023-02-25T13:54:52;0.60;99.90
12682;DHT22;6405;59.208;18.216;2023-02-25T14:00:43;0.50;99.90
12682;DHT22;6405;59.208;18.216;2023-02-25T14:19:36;0.10;99.90
12682;DHT22;6405;59.208;18.216;2023-02-25T14:22:20;0.10;99.90
12682;DHT22;6405;59.208;18.216;2023-02-25T14:39:27;-0.10;99.90
12682;DHT22;6405;59.208;18.216;2023-02-25T14:47:31;-0.20;99.90
12682;DHT22;6405;59.208;18.216;2023-02-25T14:50:10;-0.30;99.90
12682;DHT22;6405;59.208;18.216;2023-02-25T15:10:03;-0.40;99.90
12682;DHT22;6405;59.208;18.216;2023-02-25T15:12:53;-0.40;99.90
12682;DHT22;6405;59.208;18.216;2023-02-25T15:21:32;-0.50;99.90
12682;DHT22;6405;59.208;18.216;2023-02-25T15:23:59;-0.50;99.90
12682;DHT22;6405;59.208;18.216;2023-02-25T15:26:45;-0.40;99.90
12682;DHT22;6405;59.208;18.216;2023-02-25T15:29:20;-0.60;99.90
12682;DHT22;6405;59.208;18.216;2023-02-25T15:32:27;-0.60;99.90
12682;DHT22;6405;59.208;18.216;2023-02-25T15:35:00;-0.70;99.90
12682;DHT22;6405;59.208;18.216;2023-02-25T15:37:32;-0.70;99.90
12682;DHT22;6405;59.208;18.216;2023-02-25T15:40:01;-0.70;99.90
12682;DHT22;6405;59.208;18.216;2023-02-25T15:42:55;-0.70;99.90
12682;DHT22;6405;59.208;18.216;2023-02-25T16:01:28;-0.80;99.90
12682;DHT22;6405;59.208;18.216;2023-02-25T16:03:55;-0.80;99.90
12682;DHT22;6405;59.208;18.216;2023-02-25T16:06:37;-0.80;99.90
12682;DHT22;6405;59.208;18.216;2023-02-25T16:09:11;-0.90;99.90
12682;DHT22;6405;59.208;18.216;2023-02-25T16:11:43;-0.90;99.90
12682;DHT22;6405;59.208;18.216;2023-02-25T16:14:23;-0.90;99.90
12682;DHT22;6405;59.208;18.216;2023-02-25T16:19:36;-1.00;99.90
12682;DHT22;6405;59.208;18.216;2023-02-25T16:22:11;-1.00;99.90
12682;DHT22;6405;59.208;18.216;2023-02-25T16:24:42;-1.10;99.90
12682;DHT22;6405;59.208;18.216;2023-02-25T16:30:08;-1.10;99.90
12682;DHT22;6405;59.208;18.216;2023-02-25T16:32:52;-1.20;99.90
12682;DHT22;6405;59.208;18.216;2023-02-25T16:35:30;-1.20;99.90
12682;DHT22;6405;59.208;18.216;2023-02-25T16:40:40;-1.30;99.90
12682;DHT22;6405;59.208;18.216;2023-02-25T16:43:12;-1.30;99.90
12682;DHT22;6405;59.208;18.216;2023-02-25T16:45:45;-1.40;99.90
12682;DHT22;6405;59.208;18.216;2023-02-25T16:48:21;-1.50;99.90
12682;DHT22;6405;59.208;18.216;2023-02-25T16:50:52;-1.60;99.90
12682;DHT22;6405;59.208;18.216;2023-02-25T16:53:21;-1.60;99.90
12682;DHT22;6405;59.208;18.216;2023-02-25T16:55:49;-1.70;99.90
12682;DHT22;6405;59.208;18.216;2023-02-25T17:01:01;-1.80;99.90
12682;DHT22;6405;59.208;18.216;2023-02-25T17:03:41;-1.70;99.90
12682;DHT22;6405;59.208;18.216;2023-02-25T17:06:17;-1.70;99.90
12682;DHT22;6405;59.208;18.216;2023-02-25T17:08:45;-1.70;99.90
12682;DHT22;6405;59.208;18.216;2023-02-25T17:11:15;-1.70;99.90
12682;DHT22;6405;59.208;18.216;2023-02-25T17:13:42;-1.70;99.90
12682;DHT22;6405;59.208;18.216;2023-02-25T17:16:30;-1.70;99.90
12682;DHT22;6405;59.208;18.216;2023-02-25T17:19:02;-1.80;99.90
12682;DHT22;6405;59.208;18.216;2023-02-25T17:21:35;-1.90;99.90
12682;DHT22;6405;59.208;18.216;2023-02-25T17:24:07;-2.00;99.90
12682;DHT22;6405;59.208;18.216;2023-02-25T17:26:39;-2.10;99.90
12682;DHT22;6405;59.208;18.216;2023-02-25T17:29:10;-2.10;99.90
12682;DHT22;6405;59.208;18.216;2023-02-25T17:31:51;-2.10;99.90
12682;DHT22;6405;59.208;18.216;2023-02-25T17:34:24;-2.20;99.90
12682;DHT22;6405;59.208;18.216;2023-02-25T17:36:53;-2.20;99.90
12682;DHT22;6405;59.208;18.216;2023-02-25T17:39:20;-2.30;99.90
12682;DHT22;6405;59.208;18.216;2023-02-25T17:41:46;-2.30;99.90
12682;DHT22;6405;59.208;18.216;2023-02-25T17:47:19;-2.40;99.90
12682;DHT22;6405;59.208;18.216;2023-02-25T17:49:46;-2.40;99.90
12682;DHT22;6405;59.208;18.216;2023-02-25T17:52:27;-2.40;99.90
12682;DHT22;6405;59.208;18.216;2023-02-25T17:55:06;-2.40;99.90
12682;DHT22;6405;59.208;18.216;2023-02-25T17:57:32;-2.50;99.90
12682;DHT22;6405;59.208;18.216;2023-02-25T18:00:17;-2.50;99.90
12682;DHT22;6405;59.208;18.216;2023-02-25T18:02:44;-2.50;99.90
12682;DHT22;6405;59.208;18.216;2023-02-25T18:12:54;-2.60;99.90
12682;DHT22;6405;59.208;18.216;2023-02-25T18:15:26;-2.60;99.90
12682;DHT22;6405;59.208;18.216;2023-02-25T18:18:05;-2.60;99.90
12682;DHT22;6405;59.208;18.216;2023-02-25T18:20:40;-2.70;99.90
12682;DHT22;6405;59.208;18.216;2023-02-25T18:25:48;-2.70;99.90
12682;DHT22;6405;59.208;18.216;2023-02-25T18:28:20;-2.70;99.90
12682;DHT22;6405;59.208;18.216;2023-02-25T18:30:47;-2.70;99.90
12682;DHT22;6405;59.208;18.216;2023-02-25T18:33:14;-2.70;99.90
12682;DHT22;6405;59.208;18.216;2023-02-25T18:35:42;-2.80;99.90
12682;DHT22;6405;59.208;18.216;2023-02-25T18:38:14;-2.50;99.90
12682;DHT22;6405;59.208;18.216;2023-02-25T18:40:40;-2.80;99.90
12682;DHT22;6405;59.208;18.216;2023-02-25T18:43:06;-2.80;99.90
12682;DHT22;6405;59.208;18.216;2023-02-25T18:45:33;-2.80;99.90
12682;DHT22;6405;59.208;18.216;2023-02-25T18:47:59;-2.80;99.90
12682;DHT22;6405;59.208;18.216;2023-02-25T18:50:28;-2.80;99.90
12682;DHT22;6405;59.208;18.216;2023-02-25T18:52:54;-2.90;99.90
12682;DHT22;6405;59.208;18.216;2023-02-25T18:55:25;-2.90;99.90
12682;DHT22;6405;59.208;18.216;2023-02-25T18:57:51;-3.00;99.90
12682;DHT22;6405;59.208;18.216;2023-02-25T19:00:20;-3.00;99.90
12682;DHT22;6405;59.208;18.216;2023-02-25T19:03:06;-3.00;99.90
12682;DHT22;6405;59.208;18.216;2023-02-25T19:05:32;-3.10;99.90
12682;DHT22;6405;59.208;18.216;2023-02-25T19:07:58;-3.10;99.90
12682;DHT22;6405;59.208;18.216;2023-02-25T19:10:29;-3.10;99.90
12682;DHT22;6405;59.208;18.216;2023-02-25T19:13:03;-3.10;99.90
12682;DHT22;6405;59.208;18.216;2023-02-25T19:15:30;-3.10;99.90
12682;DHT22;6405;59.208;18.216;2023-02-25T19:17:56;-3.10;99.90
12682;DHT22;6405;59.208;18.216;2023-02-25T19:20:22;-3.20;99.90
12682;DHT22;6405;59.208;18.216;2023-02-25T19:22:50;-3.20;99.90
12682;DHT22;6405;59.208;18.216;2023-02-25T19:25:24;-3.20;99.90
12682;DHT22;6405;59.208;18.216;2023-02-25T19:27:52;-3.20;99.90
12682;DHT22;6405;59.208;18.216;2023-02-25T19:30:20;-3.20;99.90
12682;DHT22;6405;59.208;18.216;2023-02-25T19:32:46;-3.30;99.90
12682;DHT22;6405;59.208;18.216;2023-02-25T19:35:12;-3.30;99.90
12682;DHT22;6405;59.208;18.216;2023-02-25T19:37:40;-3.30;99.90
12682;DHT22;6405;59.208;18.216;2023-02-25T19:40:08;-3.40;99.90
12682;DHT22;6405;59.208;18.216;2023-02-25T19:42:35;-3.30;99.90
12682;DHT22;6405;59.208;18.216;2023-02-25T19:45:01;-3.30;99.90
12682;DHT22;6405;59.208;18.216;2023-02-25T19:47:27;-3.20;99.90